Sorel, Canada
Current Conditions -  °F | °C
As of 12:25 PM on Thursday 18 Dec 2014 (Local Time) from CYRQ Reporting Station
Overcast Overcast  
Wind Chill: 24°   Ceiling: 2000
Heat Index: 30°   Visibility: 9mi
Dew Point: 27°   Wind: 6mph
Humidity: 86%   Direction: 330°NNW
Pressure: 29.81"   Gusts: NA
Location:  46.04°N, 73.11°W
Report Text: CYRQ 181725Z AUTO 33005KT 300V010 9SM BKN020 BKN033 OVC055 M01/M03 A2981 RMK SLP097
Loading
Personal Weather Stations






























Interactive Weather Map New forecast layout! Learn more

10-Day Weather Forecast

Advertisements
Track Severe Weather on mobile